Time;durP1;ratioP1;P1;durP2;ratioP2;P2;SDS_P1;SDS_P2;PMS_P1;PMS_P2;Temp;Humidity;BMP_temperature;BMP_pressure;BME280_temperature;BME280_humidity;BME280_pressure;Samples;Min_cycle;Max_cycle;Signal;HPM_P1;HPM_P2
2022/12/29 00:00:07;;;;;;;6.75;3.38;;;22.60;99.90;;;;;;5044775;28;20023;-67
2022/12/29 00:02:34;;;;;;;7.45;2.22;;;22.80;99.90;;;;;;5039503;28;20763;-67
2022/12/29 00:05:02;;;;;;;6.15;2.40;;;22.80;99.90;;;;;;5029516;28;20063;-67
2022/12/29 00:07:29;;;;;;;7.97;2.25;;;22.80;99.90;;;;;;5029606;28;20029;-67
2022/12/29 00:09:56;;;;;;;6.88;2.03;;;22.80;99.90;;;;;;5029458;28;20018;-67
2022/12/29 00:12:23;;;;;;;8.02;2.50;;;22.90;99.90;;;;;;5039875;28;20048;-68
2022/12/29 00:17:36;;;;;;;9.90;2.50;;;22.80;99.90;;;;;;5039616;28;20044;-67
2022/12/29 00:36:44;;;;;;;7.93;2.33;;;23.30;99.90;;;;;;5050882;28;20035;-68
2022/12/29 00:44:47;;;;;;;6.70;2.13;;;23.10;99.90;;;;;;5036427;28;20058;-68
2022/12/29 00:47:14;;;;;;;8.80;1.88;;;23.00;99.90;;;;;;5038845;28;20055;-68
2022/12/29 00:49:42;;;;;;;7.28;2.17;;;23.00;99.90;;;;;;5034499;28;22017;-67
2022/12/29 00:52:12;;;;;;;7.00;2.30;;;23.10;99.90;;;;;;5044626;28;20045;-67
2022/12/29 00:54:40;;;;;;;8.15;2.17;;;23.10;99.90;;;;;;5033181;28;20030;-68
2022/12/29 00:57:09;;;;;;;6.90;1.95;;;23.30;99.90;;;;;;5042640;28;20025;-67
2022/12/29 00:59:41;;;;;;;10.43;2.33;;;23.30;99.90;;;;;;5038588;28;20032;-67
2022/12/29 01:02:09;;;;;;;4.38;1.88;;;23.30;99.90;;;;;;5035563;28;20493;-67
2022/12/29 01:04:37;;;;;;;9.52;2.50;;;23.40;99.90;;;;;;5031318;28;20492;-67
2022/12/29 01:07:04;;;;;;;7.57;2.33;;;23.30;99.90;;;;;;5044199;28;20060;-67
2022/12/29 01:12:40;;;;;;;6.00;2.15;;;23.30;99.90;;;;;;5034568;28;20059;-67
2022/12/29 01:15:05;;;;;;;7.20;2.40;;;23.10;99.90;;;;;;5040473;28;20029;-68
2022/12/29 01:17:32;;;;;;;5.57;2.28;;;23.20;99.90;;;;;;5037561;28;20056;-68
2022/12/29 01:19:59;;;;;;;6.13;2.50;;;23.00;99.90;;;;;;5032575;28;20470;-68
2022/12/29 01:22:27;;;;;;;4.43;2.13;;;23.00;99.90;;;;;;5049802;28;20044;-68
2022/12/29 01:24:54;;;;;;;6.43;2.22;;;23.50;99.70;;;;;;5046339;28;20486;-67
2022/12/29 01:27:22;;;;;;;8.02;1.85;;;23.70;99.10;;;;;;5046005;28;20029;-69
2022/12/29 01:29:49;;;;;;;11.82;3.00;;;24.00;98.90;;;;;;5045588;28;20025;-69
2022/12/29 01:32:16;;;;;;;3.70;1.85;;;24.20;98.20;;;;;;5034835;28;20025;-69
2022/12/29 01:34:49;;;;;;;6.05;2.13;;;24.30;97.40;;;;;;5041437;28;20025;-71
2022/12/29 01:37:17;;;;;;;3.78;1.45;;;24.30;97.90;;;;;;5044636;28;20478;-67
2022/12/29 01:39:44;;;;;;;7.07;1.80;;;24.20;97.40;;;;;;5037254;28;20219;-68
2022/12/29 01:42:19;;;;;;;6.13;1.33;;;23.90;98.00;;;;;;5039033;28;20087;-68
2022/12/29 01:44:58;;;;;;;8.90;2.95;;;23.70;98.80;;;;;;5034532;28;20025;-68
2022/12/29 01:47:35;;;;;;;10.55;2.03;;;23.50;99.30;;;;;;5031523;28;20498;-68
2022/12/29 01:50:08;;;;;;;5.55;2.03;;;23.60;99.20;;;;;;5046301;28;20536;-68
2022/12/29 01:52:39;;;;;;;5.32;1.90;;;23.50;99.40;;;;;;5040297;28;20031;-69
2022/12/29 01:55:08;;;;;;;4.63;1.45;;;23.80;99.10;;;;;;5031402;28;20482;-67
2022/12/29 01:57:40;;;;;;;7.47;1.90;;;24.00;98.60;;;;;;5046866;28;20545;-68
2022/12/29 02:00:13;;;;;;;5.18;1.58;;;24.00;98.00;;;;;;5037571;28;20040;-68
2022/12/29 02:02:49;;;;;;;4.63;2.50;;;23.80;98.50;;;;;;5031371;28;20517;-68
2022/12/29 02:05:42;;;;;;;4.10;1.73;;;23.80;99.10;;;;;;5035518;28;20016;-68
2022/12/29 02:08:11;;;;;;;7.22;2.75;;;23.90;98.60;;;;;;5031350;28;20037;-68
2022/12/29 02:10:40;;;;;;;8.40;2.35;;;24.10;98.10;;;;;;5031129;28;20431;-67
2022/12/29 02:13:08;;;;;;;6.43;2.17;;;24.00;97.60;;;;;;5031287;28;20467;-67
2022/12/29 02:15:35;;;;;;;9.82;2.00;;;23.90;97.70;;;;;;5031816;28;20036;-67
2022/12/29 02:18:13;;;;;;;7.43;2.13;;;23.80;98.20;;;;;;5045009;28;20489;-69
2022/12/29 02:21:18;;;;;;;5.03;1.45;;;23.80;98.00;;;;;;5051035;28;20367;-68
2022/12/29 02:24:04;;;;;;;9.00;2.20;;;24.10;97.50;;;;;;5050999;28;20507;-67
2022/12/29 02:26:43;;;;;;;12.32;2.20;;;24.10;97.00;;;;;;5032194;28;20022;-71
2022/12/29 02:29:55;;;;;;;6.55;2.22;;;24.40;96.50;;;;;;5031598;28;20048;-70
2022/12/29 02:32:47;;;;;;;8.73;1.92;;;24.70;95.60;;;;;;5038868;28;20021;-68
2022/12/29 02:35:36;;;;;;;9.52;1.90;;;24.80;95.50;;;;;;5046124;28;20025;-68
2022/12/29 02:38:23;;;;;;;7.80;1.95;;;25.00;95.10;;;;;;5050806;28;20021;-69
2022/12/29 02:41:06;;;;;;;6.97;2.20;;;25.10;94.80;;;;;;5049270;28;20151;-71
2022/12/29 02:43:51;;;;;;;6.80;1.83;;;24.90;95.00;;;;;;5054890;28;20016;-68
2022/12/29 02:46:27;;;;;;;11.80;3.10;;;24.60;95.30;;;;;;5055424;28;20078;-69
2022/12/29 02:49:10;;;;;;;6.30;1.98;;;24.80;95.30;;;;;;5052188;28;20402;-69
2022/12/29 02:52:08;;;;;;;6.50;2.17;;;25.10;94.80;;;;;;5035858;28;20378;-70
2022/12/29 02:54:42;;;;;;;8.10;2.53;;;25.30;94.30;;;;;;5030108;28;20025;-69
2022/12/29 02:57:31;;;;;;;7.22;2.40;;;25.40;93.80;;;;;;5030182;28;20056;-69
2022/12/29 03:00:17;;;;;;;13.10;2.47;;;25.50;94.00;;;;;;5030562;28;20075;-71
2022/12/29 03:03:06;;;;;;;10.93;3.67;;;25.20;94.00;;;;;;5051440;28;20037;-70
2022/12/29 03:06:03;;;;;;;9.55;2.67;;;25.00;94.30;;;;;;5034146;28;20025;-70
2022/12/29 03:08:49;;;;;;;7.90;1.95;;;25.00;95.00;;;;;;5032932;28;20461;-70
2022/12/29 03:17:33;;;;;;;10.32;2.70;;;25.00;95.60;;;;;;5032862;28;20051;-67
2022/12/29 03:20:07;;;;;;;8.90;2.47;;;25.20;94.80;;;;;;5036025;28;20028;-70
2022/12/29 03:22:40;;;;;;;14.18;2.88;;;25.10;94.70;;;;;;5031465;28;20398;-71
2022/12/29 03:25:22;;;;;;;15.65;2.72;;;25.30;94.50;;;;;;5030081;28;20021;-67
2022/12/29 03:27:59;;;;;;;11.25;2.92;;;25.70;94.00;;;;;;5031493;28;20082;-66
2022/12/29 03:30:28;;;;;;;8.45;2.10;;;25.90;93.00;;;;;;5034615;28;20029;-66
2022/12/29 03:33:02;;;;;;;6.90;1.90;;;26.00;92.40;;;;;;5033988;28;20477;-68
2022/12/29 03:35:33;;;;;;;9.18;2.03;;;26.00;92.80;;;;;;5033878;28;20382;-68
2022/12/29 03:38:18;;;;;;;9.18;3.53;;;26.00;92.50;;;;;;5038232;28;20032;-67
2022/12/29 03:40:59;;;;;;;13.00;2.70;;;25.90;91.90;;;;;;5031320;28;20398;-66
2022/12/29 03:43:27;;;;;;;8.25;2.08;;;26.10;92.10;;;;;;5037860;28;20067;-66
2022/12/29 03:45:55;;;;;;;8.55;2.10;;;25.90;92.40;;;;;;5037575;28;20489;-67
2022/12/29 03:48:22;;;;;;;9.45;2.63;;;26.30;91.90;;;;;;5037635;28;20037;-66
2022/12/29 03:50:49;;;;;;;8.48;2.47;;;26.40;91.30;;;;;;5038256;28;20028;-67
2022/12/29 03:53:16;;;;;;;9.98;2.30;;;26.50;91.20;;;;;;5038074;28;20052;-66
2022/12/29 03:55:44;;;;;;;8.23;2.97;;;26.50;91.50;;;;;;5038982;28;20693;-68
2022/12/29 03:58:11;;;;;;;6.65;1.88;;;26.00;91.40;;;;;;5046139;28;20025;-68
2022/12/29 04:00:38;;;;;;;12.25;2.60;;;25.80;92.10;;;;;;5047536;28;20017;-68
2022/12/29 04:03:08;;;;;;;8.25;2.20;;;25.60;92.80;;;;;;5038749;28;20111;-67
2022/12/29 04:05:36;;;;;;;7.90;1.95;;;25.60;92.00;;;;;;5051938;28;20400;-67
2022/12/29 04:08:03;;;;;;;9.38;2.60;;;25.70;92.00;;;;;;5055802;28;20052;-67
2022/12/29 04:10:30;;;;;;;7.32;1.85;;;25.60;92.40;;;;;;5056222;28;20518;-67
2022/12/29 04:12:57;;;;;;;9.02;2.40;;;25.60;92.60;;;;;;5063973;28;20028;-74
2022/12/29 04:15:26;;;;;;;14.63;2.83;;;25.70;92.10;;;;;;5035637;28;20021;-67
2022/12/29 04:17:53;;;;;;;10.93;3.08;;;25.50;93.10;;;;;;5047707;28;20119;-67
2022/12/29 04:23:07;;;;;;;8.70;2.80;;;25.60;92.30;;;;;;5036397;28;20412;-67
2022/12/29 04:25:34;;;;;;;6.45;2.08;;;25.70;92.50;;;;;;5043375;28;20029;-68
2022/12/29 04:28:02;;;;;;;9.98;2.47;;;25.50;92.30;;;;;;5036778;28;20112;-68
2022/12/29 04:30:29;;;;;;;6.95;2.95;;;25.50;92.50;;;;;;5038074;28;20029;-66
2022/12/29 04:32:56;;;;;;;6.20;2.08;;;25.30;92.70;;;;;;5045884;28;20355;-68
2022/12/29 04:35:23;;;;;;;11.10;2.22;;;25.40;92.90;;;;;;5040500;28;20028;-69
2022/12/29 04:37:50;;;;;;;5.93;2.10;;;25.50;92.60;;;;;;5040919;28;20031;-67
2022/12/29 04:40:18;;;;;;;7.20;2.13;;;25.60;92.80;;;;;;5033066;28;20029;-68
2022/12/29 04:42:45;;;;;;;6.47;2.50;;;25.80;91.90;;;;;;5052757;28;20118;-67
2022/12/29 04:45:15;;;;;;;8.40;2.60;;;25.80;92.10;;;;;;5053198;28;20029;-66
2022/12/29 04:47:43;;;;;;;7.00;2.40;;;25.90;92.10;;;;;;5053076;28;20051;-67
2022/12/29 04:50:11;;;;;;;7.47;3.05;;;25.90;91.60;;;;;;5040241;28;20035;-68
2022/12/29 04:52:38;;;;;;;11.00;2.35;;;26.00;91.70;;;;;;5033613;28;20064;-67
2022/12/29 04:55:06;;;;;;;12.70;3.15;;;25.90;91.50;;;;;;5052655;28;20031;-66
2022/12/29 04:57:33;;;;;;;11.60;2.83;;;25.80;91.40;;;;;;5053250;28;20035;-65
2022/12/29 05:00:04;;;;;;;9.90;2.47;;;25.60;92.00;;;;;;5053114;28;20053;-67
2022/12/29 05:02:31;;;;;;;11.85;2.05;;;25.60;92.40;;;;;;5053052;28;20029;-67
2022/12/29 05:04:58;;;;;;;9.93;2.42;;;25.60;92.20;;;;;;5052975;28;20021;-67
2022/12/29 05:07:26;;;;;;;9.48;2.20;;;25.50;92.30;;;;;;5038273;28;20079;-67
2022/12/29 05:09:53;;;;;;;6.13;1.98;;;25.60;92.50;;;;;;5051267;28;20043;-68
2022/12/29 05:12:20;;;;;;;9.75;2.78;;;25.80;92.50;;;;;;5048514;28;20098;-67
2022/12/29 05:14:47;;;;;;;7.65;2.33;;;25.80;92.20;;;;;;5045276;28;20025;-66
2022/12/29 05:17:15;;;;;;;6.07;2.65;;;26.00;91.60;;;;;;5037731;28;20025;-67
2022/12/29 05:19:42;;;;;;;9.65;2.05;;;26.30;91.00;;;;;;5038901;28;20409;-67
2022/12/29 05:22:09;;;;;;;8.60;2.30;;;26.20;90.80;;;;;;5049832;28;20033;-66
2022/12/29 05:24:36;;;;;;;10.65;3.20;;;26.10;90.70;;;;;;5033545;28;20461;-67
2022/12/29 05:27:03;;;;;;;13.75;2.63;;;26.10;91.00;;;;;;5049550;28;20025;-67
2022/12/29 05:29:31;;;;;;;11.10;2.50;;;26.10;90.80;;;;;;5049607;28;20457;-67
2022/12/29 05:31:58;;;;;;;9.32;2.10;;;26.00;91.00;;;;;;5049319;28;20033;-67
2022/12/29 05:34:25;;;;;;;7.35;2.65;;;26.20;91.20;;;;;;5049353;28;20017;-66
2022/12/29 05:36:53;;;;;;;9.40;2.33;;;26.30;90.80;;;;;;5049445;28;20480;-68
2022/12/29 05:39:20;;;;;;;10.40;2.17;;;26.40;90.40;;;;;;5041974;28;20045;-67
2022/12/29 05:41:47;;;;;;;8.15;1.73;;;26.40;90.40;;;;;;5032359;28;20474;-68
2022/12/29 05:44:14;;;;;;;8.57;2.75;;;26.20;90.70;;;;;;5031016;28;20018;-67
2022/12/29 05:46:42;;;;;;;15.07;2.97;;;26.10;91.00;;;;;;5029522;28;20021;-68
2022/12/29 05:49:09;;;;;;;7.55;2.20;;;26.20;90.50;;;;;;5040880;28;20025;-69
2022/12/29 05:51:36;;;;;;;11.52;2.42;;;26.20;90.50;;;;;;5049444;28;20017;-68
2022/12/29 05:54:03;;;;;;;4.30;2.25;;;26.10;91.10;;;;;;5039147;28;20093;-69
2022/12/29 05:56:30;;;;;;;9.25;2.50;;;26.10;91.00;;;;;;5035177;28;20032;-67
2022/12/29 05:58:58;;;;;;;12.18;2.30;;;26.10;91.00;;;;;;5033946;28;20077;-69
2022/12/29 06:01:25;;;;;;;9.38;2.20;;;25.80;91.30;;;;;;5033475;28;20490;-67
2022/12/29 06:03:52;;;;;;;15.00;3.85;;;25.60;91.70;;;;;;5068279;28;20020;-67
2022/12/29 06:06:20;;;;;;;11.38;2.67;;;25.60;91.70;;;;;;5055991;28;20032;-69
2022/12/29 06:08:47;;;;;;;6.85;1.90;;;25.60;91.60;;;;;;5051350;28;20053;-69
2022/12/29 06:11:14;;;;;;;11.55;2.67;;;25.60;91.90;;;;;;5064530;28;20517;-69
2022/12/29 06:13:42;;;;;;;7.13;1.92;;;25.60;91.80;;;;;;5068922;28;20086;-68
2022/12/29 06:16:09;;;;;;;14.38;2.15;;;25.50;92.10;;;;;;5031140;28;20352;-69
2022/12/29 06:18:37;;;;;;;11.15;2.50;;;25.30;92.50;;;;;;5047654;28;20025;-69
2022/12/29 06:21:06;;;;;;;7.65;2.13;;;25.30;92.30;;;;;;5051166;28;20090;-67
2022/12/29 06:23:33;;;;;;;9.13;1.70;;;25.30;92.60;;;;;;5051465;28;20436;-67
2022/12/29 06:26:00;;;;;;;10.55;3.15;;;25.30;92.40;;;;;;5050778;28;20075;-67
2022/12/29 06:28:27;;;;;;;9.43;2.05;;;25.30;92.60;;;;;;5051261;28;20018;-67
2022/12/29 06:30:54;;;;;;;7.75;1.70;;;25.40;92.50;;;;;;5047889;28;20430;-66
2022/12/29 06:33:22;;;;;;;12.07;2.15;;;25.30;92.80;;;;;;5031621;28;20025;-66
2022/12/29 06:35:49;;;;;;;9.25;2.20;;;25.10;92.90;;;;;;5031488;28;20595;-69
2022/12/29 06:38:16;;;;;;;10.07;2.05;;;25.10;93.00;;;;;;5053729;28;20028;-68
2022/12/29 06:40:44;;;;;;;6.63;2.03;;;25.20;93.20;;;;;;5047891;28;20034;-69
2022/12/29 06:43:12;;;;;;;8.40;2.20;;;25.10;93.50;;;;;;5034709;28;20367;-68
2022/12/29 06:45:40;;;;;;;14.02;2.92;;;25.00;93.80;;;;;;5030410;28;20072;-69
2022/12/29 06:48:08;;;;;;;9.02;2.15;;;24.90;94.40;;;;;;5041300;28;20076;-69
2022/12/29 06:50:35;;;;;;;7.25;1.90;;;24.70;94.70;;;;;;5031345;28;20052;-70
2022/12/29 06:53:03;;;;;;;9.60;2.10;;;24.60;95.50;;;;;;5052476;28;20070;-71
2022/12/29 06:55:30;;;;;;;9.70;2.35;;;24.50;95.90;;;;;;5040278;28;20368;-70
2022/12/29 06:57:58;;;;;;;10.60;2.40;;;24.30;96.40;;;;;;5038031;28;20022;-70
2022/12/29 07:00:26;;;;;;;7.85;2.58;;;24.20;96.60;;;;;;5045590;28;20116;-70
2022/12/29 07:02:57;;;;;;;10.57;2.40;;;23.90;97.20;;;;;;5039672;28;20073;-70
2022/12/29 07:05:27;;;;;;;18.67;2.88;;;23.90;97.50;;;;;;5040125;28;20078;-67
2022/12/29 07:07:55;;;;;;;16.02;2.80;;;23.70;97.80;;;;;;5039639;28;20376;-67
2022/12/29 07:10:23;;;;;;;12.23;2.75;;;23.60;98.10;;;;;;5042636;28;20079;-67
2022/12/29 07:12:50;;;;;;;15.35;3.70;;;23.50;98.50;;;;;;5041710;28;20036;-67
2022/12/29 07:15:18;;;;;;;12.35;2.88;;;23.40;98.60;;;;;;5049793;28;20115;-67
2022/12/29 07:17:45;;;;;;;9.57;2.65;;;23.20;99.50;;;;;;5052367;28;20026;-69
2022/12/29 07:20:12;;;;;;;14.93;2.35;;;23.00;99.80;;;;;;5033920;28;20029;-67
2022/12/29 07:22:40;;;;;;;9.45;2.38;;;22.90;99.90;;;;;;5045374;28;20035;-69
2022/12/29 07:25:07;;;;;;;10.35;2.83;;;22.80;99.90;;;;;;5043039;28;20171;-69
2022/12/29 07:27:35;;;;;;;10.52;3.00;;;22.70;99.90;;;;;;5035713;28;20040;-65
2022/12/29 07:30:02;;;;;;;9.18;2.63;;;22.60;99.90;;;;;;5054171;28;20029;-65
2022/12/29 07:32:32;;;;;;;9.07;2.55;;;22.60;99.90;;;;;;5037509;28;20033;-65
2022/12/29 07:34:59;;;;;;;11.23;2.55;;;22.50;99.90;;;;;;5034612;28;20034;-66
2022/12/29 07:37:27;;;;;;;11.65;3.17;;;22.40;99.90;;;;;;5034792;28;20044;-67
2022/12/29 07:39:54;;;;;;;11.25;3.85;;;22.20;99.90;;;;;;5039297;28;20020;-70
2022/12/29 07:42:21;;;;;;;6.50;2.28;;;22.20;99.90;;;;;;5033488;28;20090;-69
2022/12/29 07:44:49;;;;;;;8.88;2.50;;;22.20;99.90;;;;;;5031490;28;20025;-69
2022/12/29 07:47:16;;;;;;;11.07;2.58;;;22.10;99.90;;;;;;5040726;28;20048;-69
2022/12/29 07:49:43;;;;;;;10.52;2.88;;;22.00;99.90;;;;;;5034314;28;20445;-70
2022/12/29 07:52:10;;;;;;;8.45;3.00;;;21.80;99.90;;;;;;5036954;28;20040;-69
2022/12/29 07:54:38;;;;;;;11.60;2.80;;;21.80;99.90;;;;;;5039002;28;20024;-68
2022/12/29 07:57:06;;;;;;;11.68;3.47;;;21.60;99.90;;;;;;5043742;28;20052;-68
2022/12/29 07:59:34;;;;;;;11.85;3.10;;;21.50;99.90;;;;;;5035042;28;20136;-71
2022/12/29 08:02:01;;;;;;;13.63;3.17;;;21.40;99.90;;;;;;5034693;28;20069;-69
2022/12/29 08:04:28;;;;;;;9.43;2.42;;;21.30;99.90;;;;;;5043742;28;20942;-68
2022/12/29 08:06:55;;;;;;;13.38;2.83;;;21.20;99.90;;;;;;5036645;28;20114;-69
2022/12/29 08:09:23;;;;;;;12.07;3.22;;;21.20;99.90;;;;;;5037576;28;20021;-70
2022/12/29 08:11:50;;;;;;;14.00;2.50;;;21.10;99.90;;;;;;5032213;28;20033;-69
2022/12/29 08:14:18;;;;;;;10.30;3.05;;;21.10;99.90;;;;;;5032560;28;20025;-70
2022/12/29 08:16:45;;;;;;;14.57;2.67;;;21.00;99.90;;;;;;5043460;28;20025;-70
2022/12/29 08:19:13;;;;;;;12.40;2.53;;;20.90;99.90;;;;;;5044856;28;20033;-70
2022/12/29 08:21:41;;;;;;;11.48;4.20;;;20.90;99.90;;;;;;5044252;28;20044;-70
2022/12/29 08:24:09;;;;;;;14.30;2.90;;;20.80;99.90;;;;;;5042940;28;20543;-71
2022/12/29 08:26:37;;;;;;;15.55;2.92;;;20.80;99.90;;;;;;5040712;28;20482;-70
2022/12/29 08:29:04;;;;;;;15.25;2.97;;;20.70;99.90;;;;;;5041971;28;20487;-70
2022/12/29 08:31:31;;;;;;;13.20;2.45;;;20.70;99.90;;;;;;5039835;28;20032;-69
2022/12/29 08:33:59;;;;;;;16.98;3.45;;;20.60;99.90;;;;;;5033998;28;20029;-68
2022/12/29 08:36:27;;;;;;;11.23;2.30;;;20.60;99.90;;;;;;5036734;28;20025;-68
2022/12/29 08:38:54;;;;;;;9.35;2.28;;;20.50;99.90;;;;;;5035754;28;20394;-68
2022/12/29 08:41:21;;;;;;;13.65;2.55;;;20.50;99.90;;;;;;5041137;28;20440;-69
2022/12/29 08:43:49;;;;;;;11.30;2.20;;;20.50;99.90;;;;;;5044482;28;20017;-69
2022/12/29 08:46:17;;;;;;;9.10;2.45;;;20.50;99.90;;;;;;5037748;28;20070;-69
2022/12/29 08:48:44;;;;;;;12.93;2.67;;;20.40;99.90;;;;;;5033001;28;20064;-70
2022/12/29 08:51:11;;;;;;;13.18;3.28;;;20.40;99.90;;;;;;5025892;28;20033;-69
2022/12/29 08:53:39;;;;;;;9.38;2.92;;;20.40;99.90;;;;;;5033124;28;20029;-68
2022/12/29 08:56:08;;;;;;;9.02;3.22;;;20.30;99.90;;;;;;5058535;28;20020;-68
2022/12/29 08:58:36;;;;;;;12.30;2.67;;;20.30;99.90;;;;;;5057235;28;20048;-68
2022/12/29 09:01:03;;;;;;;8.60;2.28;;;20.20;99.90;;;;;;5051447;28;20025;-67
2022/12/29 09:03:30;;;;;;;9.32;3.25;;;20.20;99.90;;;;;;5047143;28;20570;-67
2022/12/29 09:05:57;;;;;;;7.30;2.42;;;20.20;99.90;;;;;;5050370;28;20031;-68
2022/12/29 09:08:28;;;;;;;13.63;2.83;;;20.20;99.90;;;;;;5042352;28;20495;-69
2022/12/29 09:10:55;;;;;;;7.75;2.58;;;20.10;99.90;;;;;;5035051;28;20090;-69
2022/12/29 09:13:23;;;;;;;11.00;2.90;;;20.10;99.90;;;;;;5045178;28;20056;-68
2022/12/29 09:15:59;;;;;;;14.88;4.28;;;20.10;99.90;;;;;;5052349;28;20730;-68
2022/12/29 09:18:26;;;;;;;15.93;2.72;;;20.10;99.90;;;;;;5053899;28;20059;-67
2022/12/29 09:21:01;;;;;;;12.15;2.17;;;20.10;99.90;;;;;;5045550;28;20126;-68
2022/12/29 09:23:29;;;;;;;10.70;2.80;;;20.00;99.90;;;;;;5039126;28;20493;-68
2022/12/29 09:25:57;;;;;;;8.23;1.80;;;20.00;99.90;;;;;;5048970;28;20033;-67
2022/12/29 09:28:24;;;;;;;10.60;2.60;;;20.00;99.90;;;;;;5047041;28;20456;-69
2022/12/29 09:30:51;;;;;;;14.60;2.97;;;20.00;99.90;;;;;;5053337;28;20555;-68
2022/12/29 09:33:19;;;;;;;13.85;2.63;;;19.90;99.90;;;;;;5049072;28;20033;-70
2022/12/29 09:35:51;;;;;;;11.13;2.28;;;19.90;99.90;;;;;;5045574;28;20369;-71
2022/12/29 09:38:20;;;;;;;14.30;3.28;;;19.90;99.90;;;;;;5045110;28;20029;-70
2022/12/29 09:40:52;;;;;;;16.05;2.78;;;19.90;99.90;;;;;;5033380;28;20020;-70
2022/12/29 09:43:28;;;;;;;14.57;2.72;;;19.80;99.90;;;;;;5058180;28;20047;-69
2022/12/29 09:46:07;;;;;;;15.88;3.17;;;19.80;99.90;;;;;;5032658;28;20036;-69
2022/12/29 09:48:40;;;;;;;23.33;2.65;;;19.80;99.90;;;;;;5038295;28;20505;-69
2022/12/29 09:51:19;;;;;;;7.57;2.58;;;19.70;99.90;;;;;;5039254;28;20029;-69
2022/12/29 09:53:51;;;;;;;10.73;2.28;;;19.70;99.90;;;;;;5048678;28;20195;-69
2022/12/29 09:56:22;;;;;;;13.73;2.30;;;19.70;99.90;;;;;;5049000;28;20033;-69
2022/12/29 09:58:59;;;;;;;9.88;2.42;;;19.60;99.90;;;;;;5026456;28;20029;-70
2022/12/29 10:01:32;;;;;;;23.13;4.38;;;19.60;99.90;;;;;;5025007;28;20068;-73
2022/12/29 10:04:05;;;;;;;14.98;2.85;;;19.60;99.90;;;;;;5041989;28;20477;-68
2022/12/29 10:06:47;;;;;;;11.25;2.35;;;19.60;99.90;;;;;;5043124;28;20037;-71
2022/12/29 10:09:38;;;;;;;15.23;4.22;;;19.60;99.90;;;;;;5039914;28;20021;-71
2022/12/29 10:12:41;;;;;;;11.18;3.47;;;19.50;99.90;;;;;;5042091;28;20029;-68
2022/12/29 10:15:27;;;;;;;15.50;4.38;;;19.60;99.90;;;;;;5036466;28;20025;-71
2022/12/29 10:18:32;;;;;;;23.35;3.55;;;19.50;99.90;;;;;;5042778;28;20029;-69
2022/12/29 10:21:18;;;;;;;15.68;2.63;;;19.50;99.90;;;;;;5045388;28;20424;-69
2022/12/29 10:23:52;;;;;;;16.48;2.92;;;19.40;99.90;;;;;;5046700;28;20569;-70
2022/12/29 10:26:30;;;;;;;12.32;2.25;;;19.40;99.90;;;;;;5029093;28;20111;-71
2022/12/29 10:29:06;;;;;;;20.25;4.85;;;19.30;99.90;;;;;;5033758;28;20029;-69
2022/12/29 10:31:43;;;;;;;15.10;2.95;;;19.30;99.90;;;;;;5031123;28;20051;-70
2022/12/29 10:34:48;;;;;;;12.43;3.20;;;19.30;99.90;;;;;;5038678;28;20029;-71
2022/12/29 10:37:40;;;;;;;10.40;2.45;;;19.30;99.90;;;;;;5046335;28;20105;-69
2022/12/29 10:40:27;;;;;;;14.45;3.65;;;19.20;99.90;;;;;;5041561;28;20028;-71
2022/12/29 10:42:58;;;;;;;15.68;3.17;;;19.20;99.90;;;;;;5029248;28;20061;-70
2022/12/29 10:45:31;;;;;;;12.73;2.90;;;19.20;99.90;;;;;;5037939;28;20067;-71
2022/12/29 10:48:08;;;;;;;15.05;3.40;;;19.20;99.90;;;;;;5052964;28;20335;-71
2022/12/29 10:50:42;;;;;;;18.23;3.10;;;19.20;99.90;;;;;;5038571;28;20394;-70
2022/12/29 10:53:23;;;;;;;13.30;2.97;;;19.10;99.90;;;;;;5033061;28;20041;-69
2022/12/29 10:55:50;;;;;;;11.30;2.45;;;19.10;99.90;;;;;;5046599;28;20037;-70
2022/12/29 10:58:18;;;;;;;16.95;2.60;;;19.10;99.90;;;;;;5035108;28;20545;-68
2022/12/29 11:00:53;;;;;;;12.82;3.90;;;19.10;99.90;;;;;;5061677;28;20391;-69
2022/12/29 11:03:36;;;;;;;15.30;3.05;;;19.10;99.90;;;;;;5051495;28;20922;-70
2022/12/29 11:06:10;;;;;;;11.02;2.40;;;19.00;99.90;;;;;;5051266;28;20036;-69
2022/12/29 11:08:45;;;;;;;9.23;3.55;;;19.10;99.90;;;;;;5053171;28;20028;-71
2022/12/29 11:11:12;;;;;;;12.40;3.38;;;19.00;99.90;;;;;;5047100;28;20028;-69
2022/12/29 11:13:51;;;;;;;19.90;4.75;;;19.00;99.90;;;;;;5045562;28;20025;-70
2022/12/29 11:16:33;;;;;;;8.57;2.72;;;19.00;99.90;;;;;;5061537;28;20503;-70
2022/12/29 11:19:02;;;;;;;12.57;3.75;;;19.00;99.90;;;;;;5040275;28;20082;-69
2022/12/29 11:21:39;;;;;;;15.18;3.10;;;19.00;99.90;;;;;;5038891;28;20026;-68
2022/12/29 11:24:30;;;;;;;13.48;3.10;;;18.90;99.90;;;;;;5043468;28;20098;-69
2022/12/29 11:27:24;;;;;;;8.82;2.85;;;19.00;99.90;;;;;;5042082;28;20131;-69
2022/12/29 11:29:53;;;;;;;15.20;4.63;;;18.90;99.90;;;;;;5045288;28;20027;-70
2022/12/29 11:32:29;;;;;;;10.82;2.20;;;19.00;99.90;;;;;;5038663;28;20033;-69
2022/12/29 11:35:01;;;;;;;14.68;3.28;;;18.90;99.90;;;;;;5038080;28;20031;-67
2022/12/29 11:37:53;;;;;;;15.88;2.60;;;18.90;99.90;;;;;;5039508;28;20033;-68
2022/12/29 11:40:21;;;;;;;11.63;2.28;;;18.90;99.90;;;;;;5035086;28;20033;-70
2022/12/29 11:42:58;;;;;;;11.32;2.35;;;18.90;99.90;;;;;;5042432;28;20401;-70
2022/12/29 11:45:32;;;;;;;13.15;3.45;;;18.90;99.90;;;;;;5046263;28;20021;-69
2022/12/29 11:48:12;;;;;;;8.23;2.80;;;18.90;99.90;;;;;;5043622;28;20041;-68
2022/12/29 11:50:42;;;;;;;7.65;3.70;;;18.90;99.90;;;;;;5048784;28;20063;-69
2022/12/29 11:53:33;;;;;;;12.80;4.30;;;18.90;99.90;;;;;;5041138;28;20488;-68
2022/12/29 11:56:06;;;;;;;8.18;2.40;;;18.90;99.90;;;;;;5039891;28;20075;-68
2022/12/29 11:58:36;;;;;;;11.52;2.72;;;18.80;99.90;;;;;;5048573;28;20025;-68
2022/12/29 12:01:23;;;;;;;10.95;2.28;;;18.80;99.90;;;;;;5049975;28;20029;-67
2022/12/29 12:03:59;;;;;;;12.23;2.92;;;18.80;99.90;;;;;;5059348;28;20086;-69
2022/12/29 12:06:28;;;;;;;15.77;2.90;;;18.80;99.90;;;;;;5050518;28;20028;-69
2022/12/29 12:08:56;;;;;;;14.20;3.22;;;18.80;99.90;;;;;;5059299;28;20033;-69
2022/12/29 12:11:36;;;;;;;12.18;3.63;;;18.80;99.90;;;;;;5040063;28;20025;-68
2022/12/29 12:14:16;;;;;;;8.05;2.55;;;18.80;99.90;;;;;;5036632;28;20390;-68
2022/12/29 12:16:53;;;;;;;19.63;3.47;;;18.80;99.90;;;;;;5032725;28;20446;-69
2022/12/29 12:19:54;;;;;;;9.38;2.53;;;18.80;99.90;;;;;;5038431;28;20061;-68
2022/12/29 12:22:31;;;;;;;5.97;2.22;;;18.90;99.90;;;;;;5045397;28;20052;-68
2022/12/29 12:25:13;;;;;;;11.02;2.55;;;18.90;99.90;;;;;;5061230;28;20028;-68
2022/12/29 12:27:52;;;;;;;15.38;2.78;;;19.00;99.90;;;;;;5044352;28;20111;-68
2022/12/29 12:30:25;;;;;;;10.77;2.53;;;19.00;99.90;;;;;;5047896;28;20068;-69
2022/12/29 12:32:59;;;;;;;12.07;2.45;;;19.00;99.90;;;;;;5043350;28;20041;-68
2022/12/29 12:35:32;;;;;;;13.45;3.05;;;19.00;99.90;;;;;;5064728;28;20024;-68
2022/12/29 12:38:14;;;;;;;5.78;2.45;;;19.00;99.90;;;;;;5039567;28;20084;-69
2022/12/29 12:40:57;;;;;;;10.07;2.28;;;18.90;99.90;;;;;;5040134;28;20032;-70
2022/12/29 12:43:49;;;;;;;9.70;3.00;;;19.00;99.90;;;;;;5048291;28;20037;-70
2022/12/29 12:46:29;;;;;;;8.63;3.72;;;19.00;99.90;;;;;;5044444;28;20294;-69
2022/12/29 12:49:33;;;;;;;10.25;2.70;;;19.00;99.90;;;;;;5051189;28;20386;-68
2022/12/29 12:52:19;;;;;;;12.32;2.50;;;19.00;99.90;;;;;;5050368;28;20092;-69
2022/12/29 12:55:23;;;;;;;11.25;2.45;;;19.10;99.90;;;;;;5049152;28;20025;-68
2022/12/29 12:58:19;;;;;;;10.48;2.17;;;19.00;99.90;;;;;;5048303;28;20025;-69
2022/12/29 13:01:15;;;;;;;11.82;2.80;;;19.00;99.90;;;;;;5035562;28;20041;-70
2022/12/29 13:03:48;;;;;;;13.20;2.80;;;19.10;99.90;;;;;;5053598;28;20115;-69
2022/12/29 13:06:42;;;;;;;14.50;2.42;;;19.10;99.90;;;;;;5058342;28;20025;-69
2022/12/29 13:09:26;;;;;;;10.55;2.28;;;19.00;99.90;;;;;;5029941;28;20030;-69
2022/12/29 13:12:30;;;;;;;10.43;3.10;;;19.00;99.90;;;;;;5044913;28;20033;-70
2022/12/29 13:15:03;;;;;;;9.88;2.30;;;19.00;99.90;;;;;;5031720;28;20021;-68
2022/12/29 13:17:57;;;;;;;9.90;2.33;;;19.00;99.90;;;;;;5050990;28;20037;-69
2022/12/29 13:20:54;;;;;;;8.85;2.75;;;19.00;99.90;;;;;;5058759;28;20501;-69
2022/12/29 13:24:02;;;;;;;9.63;2.35;;;18.90;99.90;;;;;;5052248;28;20059;-69
2022/12/29 13:26:53;;;;;;;10.27;2.30;;;18.90;99.90;;;;;;5037889;28;20460;-69
2022/12/29 13:29:23;;;;;;;11.50;2.67;;;18.80;99.90;;;;;;5046361;28;20049;-71
2022/12/29 13:32:16;;;;;;;10.07;3.25;;;18.80;99.90;;;;;;5041912;28;20033;-69
2022/12/29 13:35:04;;;;;;;9.77;2.03;;;18.80;99.90;;;;;;5045509;28;20029;-69
2022/12/29 13:37:35;;;;;;;6.85;2.17;;;18.80;99.90;;;;;;5037083;28;20021;-70
2022/12/29 13:40:13;;;;;;;8.98;3.03;;;18.80;99.90;;;;;;5043878;28;20091;-69
2022/12/29 13:42:42;;;;;;;5.40;3.63;;;18.80;99.90;;;;;;5042703;28;20057;-68
2022/12/29 13:45:23;;;;;;;12.70;2.88;;;18.80;99.90;;;;;;5036931;28;20025;-69
2022/12/29 13:48:04;;;;;;;10.73;2.33;;;18.90;99.90;;;;;;5043969;28;20051;-68